sensor_id;sensor_type;location;lat;lon;timestamp;pressure;altitude;pressure_sealevel;temperature;humidity
40946;BME280;55635;50.264;11.918;2023-01-30T00:00:40;95804.31;;;-1.15;80.19
40946;BME280;55635;50.264;11.918;2023-01-30T00:03:22;95795.16;;;-1.08;80.41
40946;BME280;55635;50.264;11.918;2023-01-30T00:06:03;95795.63;;;-1.03;80.18
40946;BME280;55635;50.264;11.918;2023-01-30T00:08:45;95786.00;;;-1.14;80.22
40946;BME280;55635;50.264;11.918;2023-01-30T00:11:26;95785.25;;;-1.39;81.33
40946;BME280;55635;50.264;11.918;2023-01-30T00:14:09;95790.59;;;-1.17;80.39
40946;BME280;55635;50.264;11.918;2023-01-30T00:16:50;95797.72;;;-0.84;79.93
40946;BME280;55635;50.264;11.918;2023-01-30T00:19:31;95797.34;;;-0.91;79.46
40946;BME280;55635;50.264;11.918;2023-01-30T00:22:12;95827.31;;;-0.62;78.57
40946;BME280;55635;50.264;11.918;2023-01-30T00:24:53;95815.75;;;-0.70;77.92
40946;BME280;55635;50.264;11.918;2023-01-30T00:27:34;95848.84;;;-0.60;77.92
40946;BME280;55635;50.264;11.918;2023-01-30T00:30:17;95855.59;;;-0.57;77.47
40946;BME280;55635;50.264;11.918;2023-01-30T00:32:58;95859.22;;;-0.71;77.79
40946;BME280;55635;50.264;11.918;2023-01-30T00:35:47;95871.66;;;-0.87;78.38
40946;BME280;55635;50.264;11.918;2023-01-30T00:38:28;95869.00;;;-0.74;78.35
40946;BME280;55635;50.264;11.918;2023-01-30T00:41:09;95853.38;;;-0.98;78.08
40946;BME280;55635;50.264;11.918;2023-01-30T00:43:50;95849.03;;;-0.74;78.55
40946;BME280;55635;50.264;11.918;2023-01-30T00:46:53;95840.25;;;-0.49;77.48
40946;BME280;55635;50.264;11.918;2023-01-30T00:49:46;95845.47;;;-0.49;77.47
40946;BME280;55635;50.264;11.918;2023-01-30T00:52:30;95835.41;;;-0.77;78.05
40946;BME280;55635;50.264;11.918;2023-01-30T00:55:11;95820.41;;;-0.63;77.36
40946;BME280;55635;50.264;11.918;2023-01-30T00:57:52;95816.59;;;-0.70;77.24
40946;BME280;55635;50.264;11.918;2023-01-30T01:00:33;95816.66;;;-0.82;78.35
40946;BME280;55635;50.264;11.918;2023-01-30T01:03:14;95808.31;;;-0.75;78.56
40946;BME280;55635;50.264;11.918;2023-01-30T01:05:55;95801.38;;;-0.63;77.75
40946;BME280;55635;50.264;11.918;2023-01-30T01:08:36;95809.59;;;-0.80;78.33
40946;BME280;55635;50.264;11.918;2023-01-30T01:11:17;95801.94;;;-0.71;78.05
40946;BME280;55635;50.264;11.918;2023-01-30T01:14:04;95810.00;;;-0.63;78.40
40946;BME280;55635;50.264;11.918;2023-01-30T01:16:45;95795.09;;;-0.61;77.51
40946;BME280;55635;50.264;11.918;2023-01-30T01:19:26;95807.09;;;-0.82;78.18
40946;BME280;55635;50.264;11.918;2023-01-30T01:22:07;95775.81;;;-0.93;78.96
40946;BME280;55635;50.264;11.918;2023-01-30T01:24:48;95769.34;;;-0.87;79.41
40946;BME280;55635;50.264;11.918;2023-01-30T01:27:29;95769.50;;;-0.78;79.14
40946;BME280;55635;50.264;11.918;2023-01-30T01:30:11;95745.94;;;-0.76;79.03
40946;BME280;55635;50.264;11.918;2023-01-30T01:32:52;95747.22;;;-0.82;79.79
40946;BME280;55635;50.264;11.918;2023-01-30T01:35:33;95734.75;;;-1.00;80.35
40946;BME280;55635;50.264;11.918;2023-01-30T01:38:14;95735.88;;;-0.92;80.55
40946;BME280;55635;50.264;11.918;2023-01-30T01:40:55;95746.97;;;-0.90;80.43
40946;BME280;55635;50.264;11.918;2023-01-30T01:44:07;95728.84;;;-0.91;80.84
40946;BME280;55635;50.264;11.918;2023-01-30T01:46:53;95695.53;;;-1.21;82.34
40946;BME280;55635;50.264;11.918;2023-01-30T01:49:36;95687.81;;;-1.57;84.98
40946;BME280;55635;50.264;11.918;2023-01-30T01:52:18;95700.63;;;-1.43;85.48
40946;BME280;55635;50.264;11.918;2023-01-30T01:55:02;95686.13;;;-1.58;85.32
40946;BME280;55635;50.264;11.918;2023-01-30T01:57:56;95678.44;;;-1.36;85.10
40946;BME280;55635;50.264;11.918;2023-01-30T02:00:42;95675.88;;;-1.60;86.73
40946;BME280;55635;50.264;11.918;2023-01-30T02:03:25;95697.25;;;-1.33;85.87
40946;BME280;55635;50.264;11.918;2023-01-30T02:06:09;95692.38;;;-1.14;84.56
40946;BME280;55635;50.264;11.918;2023-01-30T02:08:57;95689.25;;;-1.53;85.54
40946;BME280;55635;50.264;11.918;2023-01-30T02:11:48;95660.91;;;-1.45;86.66
40946;BME280;55635;50.264;11.918;2023-01-30T02:14:33;95636.09;;;-1.49;86.72
40946;BME280;55635;50.264;11.918;2023-01-30T02:17:15;95662.03;;;-1.60;87.58
40946;BME280;55635;50.264;11.918;2023-01-30T02:21:01;95666.50;;;-1.39;87.21
40946;BME280;55635;50.264;11.918;2023-01-30T02:32:49;95668.53;;;-0.96;84.94
40946;BME280;55635;50.264;11.918;2023-01-30T02:42:33;95624.84;;;-1.15;86.28
40946;BME280;55635;50.264;11.918;2023-01-30T02:45:31;95639.91;;;-1.42;87.22
40946;BME280;55635;50.264;11.918;2023-01-30T02:51:29;95670.00;;;-0.70;84.63
40946;BME280;55635;50.264;11.918;2023-01-30T02:54:12;95655.22;;;-0.70;83.70
40946;BME280;55635;50.264;11.918;2023-01-30T02:56:57;95643.59;;;-0.88;83.82
40946;BME280;55635;50.264;11.918;2023-01-30T02:59:43;95639.25;;;-0.76;84.59
40946;BME280;55635;50.264;11.918;2023-01-30T03:06:20;95624.94;;;-0.82;85.41
40946;BME280;55635;50.264;11.918;2023-01-30T03:09:21;95594.25;;;-1.00;86.47
40946;BME280;55635;50.264;11.918;2023-01-30T03:15:18;95583.84;;;-1.00;86.56
40946;BME280;55635;50.264;11.918;2023-01-30T03:18:04;95578.63;;;-1.23;87.13
40946;BME280;55635;50.264;11.918;2023-01-30T03:20:45;95567.41;;;-1.12;86.67
40946;BME280;55635;50.264;11.918;2023-01-30T03:23:26;95574.31;;;-0.67;85.98
40946;BME280;55635;50.264;11.918;2023-01-30T03:26:11;95573.13;;;-0.51;85.10
40946;BME280;55635;50.264;11.918;2023-01-30T03:28:54;95580.22;;;-0.31;84.23
40946;BME280;55635;50.264;11.918;2023-01-30T03:31:35;95581.53;;;-0.37;83.81
40946;BME280;55635;50.264;11.918;2023-01-30T03:34:15;95552.63;;;-0.45;83.39
40946;BME280;55635;50.264;11.918;2023-01-30T03:36:57;95563.25;;;-0.15;83.04
40946;BME280;55635;50.264;11.918;2023-01-30T03:39:38;95559.31;;;-0.09;82.05
40946;BME280;55635;50.264;11.918;2023-01-30T03:42:20;95547.94;;;-0.08;82.60
40946;BME280;55635;50.264;11.918;2023-01-30T03:45:01;95538.28;;;-0.17;82.95
40946;BME280;55635;50.264;11.918;2023-01-30T03:47:42;95534.50;;;-0.24;83.65
40946;BME280;55635;50.264;11.918;2023-01-30T03:50:23;95528.00;;;-0.30;83.83
40946;BME280;55635;50.264;11.918;2023-01-30T03:53:04;95543.38;;;-0.27;84.38
40946;BME280;55635;50.264;11.918;2023-01-30T03:55:45;95533.94;;;-0.28;84.16
40946;BME280;55635;50.264;11.918;2023-01-30T03:58:26;95532.22;;;-0.18;84.52
40946;BME280;55635;50.264;11.918;2023-01-30T04:01:08;95519.34;;;-0.19;84.38
40946;BME280;55635;50.264;11.918;2023-01-30T04:03:49;95544.91;;;-0.13;84.80
40946;BME280;55635;50.264;11.918;2023-01-30T04:06:31;95528.47;;;0.07;84.38
40946;BME280;55635;50.264;11.918;2023-01-30T04:09:12;95555.13;;;0.11;84.01
40946;BME280;55635;50.264;11.918;2023-01-30T04:12:00;95561.78;;;0.04;84.07
40946;BME280;55635;50.264;11.918;2023-01-30T04:14:45;95550.19;;;0.28;83.49
40946;BME280;55635;50.264;11.918;2023-01-30T04:17:38;95541.09;;;0.23;83.69
40946;BME280;55635;50.264;11.918;2023-01-30T04:20:46;95545.72;;;0.30;83.63
40946;BME280;55635;50.264;11.918;2023-01-30T04:23:29;95551.38;;;0.35;83.32
40946;BME280;55635;50.264;11.918;2023-01-30T04:26:11;95541.94;;;0.55;82.57
40946;BME280;55635;50.264;11.918;2023-01-30T04:28:54;95531.16;;;0.48;82.69
40946;BME280;55635;50.264;11.918;2023-01-30T04:31:36;95518.88;;;0.08;85.10
40946;BME280;55635;50.264;11.918;2023-01-30T04:34:30;95501.09;;;-0.19;86.36
40946;BME280;55635;50.264;11.918;2023-01-30T04:37:12;95493.69;;;-0.35;87.66
40946;BME280;55635;50.264;11.918;2023-01-30T04:39:53;95485.28;;;-0.38;88.35
40946;BME280;55635;50.264;11.918;2023-01-30T04:42:34;95476.63;;;-0.28;88.62
40946;BME280;55635;50.264;11.918;2023-01-30T04:45:42;95494.19;;;-0.41;88.73
40946;BME280;55635;50.264;11.918;2023-01-30T04:48:24;95489.91;;;-0.42;90.18
40946;BME280;55635;50.264;11.918;2023-01-30T04:51:06;95473.84;;;-0.47;89.16
40946;BME280;55635;50.264;11.918;2023-01-30T04:53:48;95471.44;;;-0.39;89.55
40946;BME280;55635;50.264;11.918;2023-01-30T04:56:29;95461.59;;;-0.35;89.56
40946;BME280;55635;50.264;11.918;2023-01-30T04:59:10;95457.38;;;-0.47;90.51
40946;BME280;55635;50.264;11.918;2023-01-30T05:01:55;95465.63;;;-0.42;90.55
40946;BME280;55635;50.264;11.918;2023-01-30T05:04:36;95459.38;;;-0.40;91.60
40946;BME280;55635;50.264;11.918;2023-01-30T05:07:17;95455.31;;;-0.22;92.66
40946;BME280;55635;50.264;11.918;2023-01-30T05:09:58;95436.84;;;-0.30;92.95
40946;BME280;55635;50.264;11.918;2023-01-30T05:12:39;95455.09;;;-0.09;93.01
40946;BME280;55635;50.264;11.918;2023-01-30T05:15:20;95448.34;;;-0.01;93.15
40946;BME280;55635;50.264;11.918;2023-01-30T05:18:01;95468.53;;;0.07;92.77
40946;BME280;55635;50.264;11.918;2023-01-30T05:20:42;95462.91;;;-0.09;93.02
40946;BME280;55635;50.264;11.918;2023-01-30T05:23:23;95470.50;;;-0.06;93.48
40946;BME280;55635;50.264;11.918;2023-01-30T05:26:04;95469.50;;;-0.26;94.59
40946;BME280;55635;50.264;11.918;2023-01-30T05:28:54;95456.53;;;-0.05;95.95
40946;BME280;55635;50.264;11.918;2023-01-30T05:31:35;95459.94;;;-0.36;96.08
40946;BME280;55635;50.264;11.918;2023-01-30T05:34:18;95453.19;;;-0.28;96.22
40946;BME280;55635;50.264;11.918;2023-01-30T05:36:59;95420.31;;;-0.40;96.06
40946;BME280;55635;50.264;11.918;2023-01-30T05:39:40;95444.91;;;-0.01;95.70
40946;BME280;55635;50.264;11.918;2023-01-30T05:42:21;95442.41;;;-0.03;96.49
40946;BME280;55635;50.264;11.918;2023-01-30T05:45:02;95440.63;;;-0.02;95.95
40946;BME280;55635;50.264;11.918;2023-01-30T05:47:43;95427.75;;;-0.04;95.59
40946;BME280;55635;50.264;11.918;2023-01-30T05:50:23;95418.53;;;0.13;94.92
40946;BME280;55635;50.264;11.918;2023-01-30T05:53:04;95424.97;;;0.09;94.34
40946;BME280;55635;50.264;11.918;2023-01-30T05:55:46;95431.63;;;0.02;94.30
40946;BME280;55635;50.264;11.918;2023-01-30T05:58:28;95433.41;;;0.22;93.87
40946;BME280;55635;50.264;11.918;2023-01-30T06:01:11;95430.28;;;0.28;93.73
40946;BME280;55635;50.264;11.918;2023-01-30T06:03:53;95425.00;;;0.19;94.12
40946;BME280;55635;50.264;11.918;2023-01-30T06:06:34;95432.53;;;0.12;95.42
40946;BME280;55635;50.264;11.918;2023-01-30T06:09:15;95428.00;;;0.14;95.10
40946;BME280;55635;50.264;11.918;2023-01-30T06:11:56;95418.47;;;0.24;94.66
40946;BME280;55635;50.264;11.918;2023-01-30T06:14:37;95417.41;;;0.27;95.06
40946;BME280;55635;50.264;11.918;2023-01-30T06:17:18;95411.59;;;0.23;94.90
40946;BME280;55635;50.264;11.918;2023-01-30T06:19:59;95399.19;;;0.16;94.85
40946;BME280;55635;50.264;11.918;2023-01-30T06:22:41;95394.03;;;0.25;95.03
40946;BME280;55635;50.264;11.918;2023-01-30T06:25:21;95422.94;;;0.33;94.48
40946;BME280;55635;50.264;11.918;2023-01-30T06:28:03;95403.75;;;0.44;94.68
40946;BME280;55635;50.264;11.918;2023-01-30T06:30:43;95411.41;;;0.36;95.06
40946;BME280;55635;50.264;11.918;2023-01-30T06:33:24;95394.28;;;0.43;94.91
40946;BME280;55635;50.264;11.918;2023-01-30T06:36:06;95383.56;;;0.16;95.53
40946;BME280;55635;50.264;11.918;2023-01-30T06:38:47;95394.41;;;0.41;95.60
40946;BME280;55635;50.264;11.918;2023-01-30T06:41:28;95390.28;;;0.39;95.84
40946;BME280;55635;50.264;11.918;2023-01-30T06:44:09;95387.53;;;0.40;95.89
40946;BME280;55635;50.264;11.918;2023-01-30T06:46:51;95379.25;;;0.26;96.07
40946;BME280;55635;50.264;11.918;2023-01-30T06:49:32;95374.72;;;0.07;96.49
40946;BME280;55635;50.264;11.918;2023-01-30T06:52:13;95357.75;;;0.13;96.55
40946;BME280;55635;50.264;11.918;2023-01-30T06:54:54;95349.06;;;0.23;95.90
40946;BME280;55635;50.264;11.918;2023-01-30T06:57:35;95387.59;;;0.50;96.26
40946;BME280;55635;50.264;11.918;2023-01-30T07:00:19;95354.78;;;0.47;96.63
40946;BME280;55635;50.264;11.918;2023-01-30T07:03:00;95346.97;;;0.47;96.03
40946;BME280;55635;50.264;11.918;2023-01-30T07:05:43;95357.19;;;0.60;95.49
40946;BME280;55635;50.264;11.918;2023-01-30T07:08:24;95343.66;;;0.76;94.89
40946;BME280;55635;50.264;11.918;2023-01-30T07:11:06;95338.03;;;0.80;94.17
40946;BME280;55635;50.264;11.918;2023-01-30T07:13:46;95338.06;;;0.99;93.35
40946;BME280;55635;50.264;11.918;2023-01-30T07:16:27;95330.94;;;1.11;92.72
40946;BME280;55635;50.264;11.918;2023-01-30T07:19:09;95330.41;;;1.17;92.25
40946;BME280;55635;50.264;11.918;2023-01-30T07:21:50;95337.16;;;1.10;92.46
40946;BME280;55635;50.264;11.918;2023-01-30T07:24:31;95334.00;;;1.35;91.78
40946;BME280;55635;50.264;11.918;2023-01-30T07:27:12;95332.91;;;1.28;91.88
40946;BME280;55635;50.264;11.918;2023-01-30T07:29:53;95339.91;;;1.18;91.18
40946;BME280;55635;50.264;11.918;2023-01-30T07:32:34;95332.63;;;1.41;91.36
40946;BME280;55635;50.264;11.918;2023-01-30T07:35:15;95335.81;;;1.54;90.97
40946;BME280;55635;50.264;11.918;2023-01-30T07:37:56;95338.84;;;1.59;90.80
40946;BME280;55635;50.264;11.918;2023-01-30T07:40:37;95326.84;;;1.56;90.27
40946;BME280;55635;50.264;11.918;2023-01-30T07:43:18;95325.78;;;1.49;90.91
40946;BME280;55635;50.264;11.918;2023-01-30T07:45:59;95324.41;;;1.64;90.53
40946;BME280;55635;50.264;11.918;2023-01-30T07:48:44;95322.31;;;1.78;89.36
40946;BME280;55635;50.264;11.918;2023-01-30T07:51:24;95336.19;;;1.97;89.08
40946;BME280;55635;50.264;11.918;2023-01-30T07:54:05;95336.75;;;1.91;88.97
40946;BME280;55635;50.264;11.918;2023-01-30T07:56:46;95326.47;;;1.80;89.85
40946;BME280;55635;50.264;11.918;2023-01-30T07:59:27;95326.56;;;1.88;89.53
40946;BME280;55635;50.264;11.918;2023-01-30T08:02:10;95332.06;;;1.95;89.36
40946;BME280;55635;50.264;11.918;2023-01-30T08:04:50;95329.16;;;2.17;88.16
40946;BME280;55635;50.264;11.918;2023-01-30T08:07:31;95318.47;;;2.38;87.17
40946;BME280;55635;50.264;11.918;2023-01-30T08:10:13;95319.59;;;2.35;86.83
40946;BME280;55635;50.264;11.918;2023-01-30T08:12:54;95315.53;;;2.04;87.69
40946;BME280;55635;50.264;11.918;2023-01-30T08:15:35;95322.06;;;2.27;87.55
40946;BME280;55635;50.264;11.918;2023-01-30T08:18:16;95309.53;;;2.40;87.09
40946;BME280;55635;50.264;11.918;2023-01-30T08:21:05;95297.00;;;2.34;87.53
40946;BME280;55635;50.264;11.918;2023-01-30T08:23:46;95296.13;;;2.06;89.02
40946;BME280;55635;50.264;11.918;2023-01-30T08:26:27;95291.97;;;2.23;87.74
40946;BME280;55635;50.264;11.918;2023-01-30T08:29:08;95294.69;;;2.31;86.81
40946;BME280;55635;50.264;11.918;2023-01-30T08:31:49;95294.41;;;2.34;87.20
40946;BME280;55635;50.264;11.918;2023-01-30T08:34:30;95288.94;;;2.55;85.80
40946;BME280;55635;50.264;11.918;2023-01-30T08:37:11;95271.19;;;2.22;86.01
40946;BME280;55635;50.264;11.918;2023-01-30T08:39:52;95294.63;;;2.50;85.55
40946;BME280;55635;50.264;11.918;2023-01-30T08:42:33;95296.16;;;2.98;84.30
40946;BME280;55635;50.264;11.918;2023-01-30T08:45:14;95282.09;;;2.99;83.87
40946;BME280;55635;50.264;11.918;2023-01-30T08:48:03;95285.44;;;3.36;83.01
40946;BME280;55635;50.264;11.918;2023-01-30T08:50:44;95281.28;;;3.16;82.16
40946;BME280;55635;50.264;11.918;2023-01-30T08:53:25;95300.38;;;3.26;82.65
40946;BME280;55635;50.264;11.918;2023-01-30T08:56:06;95284.97;;;3.05;82.27
40946;BME280;55635;50.264;11.918;2023-01-30T08:58:47;95302.47;;;3.05;82.80
40946;BME280;55635;50.264;11.918;2023-01-30T09:01:28;95280.38;;;2.62;83.40
40946;BME280;55635;50.264;11.918;2023-01-30T09:04:09;95284.31;;;3.21;83.11
40946;BME280;55635;50.264;11.918;2023-01-30T09:06:50;95277.25;;;3.21;82.72
40946;BME280;55635;50.264;11.918;2023-01-30T09:09:31;95293.97;;;3.20;82.77
40946;BME280;55635;50.264;11.918;2023-01-30T09:12:12;95308.84;;;3.55;82.03
40946;BME280;55635;50.264;11.918;2023-01-30T09:14:53;95279.19;;;3.19;82.15
40946;BME280;55635;50.264;11.918;2023-01-30T09:17:35;95293.66;;;3.41;81.23
40946;BME280;55635;50.264;11.918;2023-01-30T09:20:16;95301.28;;;3.35;82.22
40946;BME280;55635;50.264;11.918;2023-01-30T09:22:58;95294.13;;;3.54;81.45
40946;BME280;55635;50.264;11.918;2023-01-30T09:25:39;95301.88;;;3.11;82.80
40946;BME280;55635;50.264;11.918;2023-01-30T09:28:21;95310.94;;;3.34;82.90
40946;BME280;55635;50.264;11.918;2023-01-30T09:31:02;95313.78;;;3.23;82.63
40946;BME280;55635;50.264;11.918;2023-01-30T09:33:43;95304.47;;;2.93;83.47
40946;BME280;55635;50.264;11.918;2023-01-30T09:36:24;95319.34;;;2.93;83.83
40946;BME280;55635;50.264;11.918;2023-01-30T09:39:05;95308.34;;;2.89;84.24
40946;BME280;55635;50.264;11.918;2023-01-30T09:48:13;95318.72;;;3.44;82.43
40946;BME280;55635;50.264;11.918;2023-01-30T09:51:26;95328.09;;;3.81;81.23
40946;BME280;55635;50.264;11.918;2023-01-30T09:54:30;95338.50;;;3.73;80.41
40946;BME280;55635;50.264;11.918;2023-01-30T09:57:22;95324.72;;;3.89;80.11
40946;BME280;55635;50.264;11.918;2023-01-30T10:06:06;95319.94;;;3.84;79.58
40946;BME280;55635;50.264;11.918;2023-01-30T10:08:59;95322.34;;;4.04;80.21
40946;BME280;55635;50.264;11.918;2023-01-30T10:11:59;95315.97;;;3.45;82.04
40946;BME280;55635;50.264;11.918;2023-01-30T10:14:57;95301.50;;;2.79;85.02
40946;BME280;55635;50.264;11.918;2023-01-30T10:26:41;95254.56;;;3.65;81.80
40946;BME280;55635;50.264;11.918;2023-01-30T10:32:55;95270.81;;;3.34;83.17
40946;BME280;55635;50.264;11.918;2023-01-30T10:35:38;95268.34;;;3.32;83.67
40946;BME280;55635;50.264;11.918;2023-01-30T10:38:32;95261.84;;;3.36;83.55
40946;BME280;55635;50.264;11.918;2023-01-30T10:44:08;95230.53;;;3.70;83.01
40946;BME280;55635;50.264;11.918;2023-01-30T10:50:12;95223.03;;;4.76;77.38
40946;BME280;55635;50.264;11.918;2023-01-30T10:54:04;95210.34;;;5.38;74.59
40946;BME280;55635;50.264;11.918;2023-01-30T10:56:46;95220.19;;;5.52;74.34
40946;BME280;55635;50.264;11.918;2023-01-30T11:00:02;95207.56;;;5.96;72.92
40946;BME280;55635;50.264;11.918;2023-01-30T11:06:43;95230.53;;;5.54;74.03
40946;BME280;55635;50.264;11.918;2023-01-30T11:09:16;95235.28;;;5.18;74.59
40946;BME280;55635;50.264;11.918;2023-01-30T11:11:57;95231.63;;;4.94;75.79
40946;BME280;55635;50.264;11.918;2023-01-30T11:15:03;95250.94;;;5.52;75.01
40946;BME280;55635;50.264;11.918;2023-01-30T11:17:44;95258.31;;;5.32;75.10
40946;BME280;55635;50.264;11.918;2023-01-30T11:20:25;95251.28;;;4.82;75.75
40946;BME280;55635;50.264;11.918;2023-01-30T11:23:34;95279.13;;;4.67;77.67
40946;BME280;55635;50.264;11.918;2023-01-30T11:26:36;95249.44;;;4.33;79.50
40946;BME280;55635;50.264;11.918;2023-01-30T11:32:26;95253.09;;;4.40;79.37
40946;BME280;55635;50.264;11.918;2023-01-30T11:37:50;95252.56;;;4.78;79.09
40946;BME280;55635;50.264;11.918;2023-01-30T11:40:37;95249.75;;;5.22;77.18
40946;BME280;55635;50.264;11.918;2023-01-30T11:43:24;95239.69;;;5.09;77.32
40946;BME280;55635;50.264;11.918;2023-01-30T11:46:08;95221.44;;;4.50;79.26
40946;BME280;55635;50.264;11.918;2023-01-30T11:49:13;95229.81;;;4.53;79.79
40946;BME280;55635;50.264;11.918;2023-01-30T11:51:54;95227.59;;;4.74;78.93
40946;BME280;55635;50.264;11.918;2023-01-30T11:54:42;95218.28;;;4.80;78.43
40946;BME280;55635;50.264;11.918;2023-01-30T11:57:25;95209.50;;;4.55;79.07
40946;BME280;55635;50.264;11.918;2023-01-30T12:03:03;95216.59;;;4.63;79.04
40946;BME280;55635;50.264;11.918;2023-01-30T12:05:46;95212.78;;;4.49;79.00
40946;BME280;55635;50.264;11.918;2023-01-30T12:08:35;95198.97;;;4.13;79.60
40946;BME280;55635;50.264;11.918;2023-01-30T12:11:31;95224.00;;;4.75;79.19
40946;BME280;55635;50.264;11.918;2023-01-30T12:14:39;95210.56;;;4.70;79.06
40946;BME280;55635;50.264;11.918;2023-01-30T12:24:09;95209.25;;;4.07;80.95
40946;BME280;55635;50.264;11.918;2023-01-30T12:27:00;95211.97;;;4.23;80.86
40946;BME280;55635;50.264;11.918;2023-01-30T12:30:03;95200.63;;;4.14;81.39
40946;BME280;55635;50.264;11.918;2023-01-30T12:32:44;95211.34;;;4.29;81.14
40946;BME280;55635;50.264;11.918;2023-01-30T12:39:13;95213.00;;;4.30;81.13
40946;BME280;55635;50.264;11.918;2023-01-30T12:54:11;95219.50;;;3.92;83.66
40946;BME280;55635;50.264;11.918;2023-01-30T12:57:10;95215.19;;;4.09;83.61
40946;BME280;55635;50.264;11.918;2023-01-30T13:00:07;95216.22;;;3.90;83.58
40946;BME280;55635;50.264;11.918;2023-01-30T13:03:31;95203.13;;;3.90;83.77
40946;BME280;55635;50.264;11.918;2023-01-30T13:16:02;95207.47;;;4.41;81.28
40946;BME280;55635;50.264;11.918;2023-01-30T13:19:11;95190.19;;;4.72;80.60
40946;BME280;55635;50.264;11.918;2023-01-30T13:22:29;95177.75;;;4.90;79.37
40946;BME280;55635;50.264;11.918;2023-01-30T13:28:48;95173.66;;;4.88;79.20
40946;BME280;55635;50.264;11.918;2023-01-30T13:31:35;95196.09;;;4.66;80.01
40946;BME280;55635;50.264;11.918;2023-01-30T13:37:18;95194.69;;;4.96;79.29
40946;BME280;55635;50.264;11.918;2023-01-30T13:40:24;95217.19;;;4.49;80.96
40946;BME280;55635;50.264;11.918;2023-01-30T13:43:14;95215.44;;;4.65;80.42
40946;BME280;55635;50.264;11.918;2023-01-30T13:46:06;95219.41;;;4.69;81.25
40946;BME280;55635;50.264;11.918;2023-01-30T13:48:58;95208.88;;;4.61;81.67
40946;BME280;55635;50.264;11.918;2023-01-30T13:54:48;95210.69;;;4.69;81.55
40946;BME280;55635;50.264;11.918;2023-01-30T13:57:52;95207.38;;;4.59;81.46
40946;BME280;55635;50.264;11.918;2023-01-30T14:00:36;95209.44;;;4.05;82.61
40946;BME280;55635;50.264;11.918;2023-01-30T14:03:31;95203.13;;;4.24;83.01
40946;BME280;55635;50.264;11.918;2023-01-30T14:06:34;95206.94;;;4.29;83.61
40946;BME280;55635;50.264;11.918;2023-01-30T14:09:22;95185.72;;;4.15;83.11
40946;BME280;55635;50.264;11.918;2023-01-30T14:12:04;95196.63;;;4.36;83.29
40946;BME280;55635;50.264;11.918;2023-01-30T14:15:09;95179.22;;;4.77;81.77
40946;BME280;55635;50.264;11.918;2023-01-30T14:18:26;95173.81;;;4.86;80.80
40946;BME280;55635;50.264;11.918;2023-01-30T14:21:17;95200.69;;;4.64;81.01
40946;BME280;55635;50.264;11.918;2023-01-30T14:24:05;95210.56;;;4.70;80.78
40946;BME280;55635;50.264;11.918;2023-01-30T14:37:47;95223.19;;;4.33;82.99
40946;BME280;55635;50.264;11.918;2023-01-30T14:40:32;95213.53;;;4.08;83.47
40946;BME280;55635;50.264;11.918;2023-01-30T14:45:58;95227.41;;;4.26;83.93
40946;BME280;55635;50.264;11.918;2023-01-30T14:51:48;95232.03;;;4.32;83.76
40946;BME280;55635;50.264;11.918;2023-01-30T14:54:32;95243.97;;;4.26;84.09
40946;BME280;55635;50.264;11.918;2023-01-30T14:57:20;95224.44;;;4.21;83.39
40946;BME280;55635;50.264;11.918;2023-01-30T15:00:26;95238.22;;;4.23;84.69
40946;BME280;55635;50.264;11.918;2023-01-30T15:03:16;95250.69;;;4.21;84.40
40946;BME280;55635;50.264;11.918;2023-01-30T15:05:58;95245.75;;;4.18;83.79
40946;BME280;55635;50.264;11.918;2023-01-30T15:08:43;95246.19;;;4.39;83.69
40946;BME280;55635;50.264;11.918;2023-01-30T15:11:29;95247.53;;;4.51;82.82
40946;BME280;55635;50.264;11.918;2023-01-30T15:14:36;95261.41;;;4.35;83.51
40946;BME280;55635;50.264;11.918;2023-01-30T15:17:37;95262.03;;;4.29;84.25
40946;BME280;55635;50.264;11.918;2023-01-30T15:28:25;95261.06;;;4.30;83.68
40946;BME280;55635;50.264;11.918;2023-01-30T15:31:21;95273.34;;;4.30;83.74
40946;BME280;55635;50.264;11.918;2023-01-30T15:34:03;95255.06;;;4.12;84.11
40946;BME280;55635;50.264;11.918;2023-01-30T15:36:44;95273.31;;;4.22;83.78
40946;BME280;55635;50.264;11.918;2023-01-30T15:39:27;95279.84;;;4.18;83.53
40946;BME280;55635;50.264;11.918;2023-01-30T15:42:13;95277.53;;;4.15;83.64
40946;BME280;55635;50.264;11.918;2023-01-30T15:45:23;95270.59;;;4.06;83.32
40946;BME280;55635;50.264;11.918;2023-01-30T15:48:38;95305.81;;;4.29;83.20
40946;BME280;55635;50.264;11.918;2023-01-30T15:51:28;95307.03;;;4.17;83.29
40946;BME280;55635;50.264;11.918;2023-01-30T15:54:16;95294.72;;;4.09;83.38
40946;BME280;55635;50.264;11.918;2023-01-30T15:56:59;95304.81;;;4.04;83.40
40946;BME280;55635;50.264;11.918;2023-01-30T15:59:40;95318.16;;;4.11;83.46
40946;BME280;55635;50.264;11.918;2023-01-30T16:02:32;95303.06;;;4.30;83.10
40946;BME280;55635;50.264;11.918;2023-01-30T16:05:20;95304.38;;;4.34;83.03
40946;BME280;55635;50.264;11.918;2023-01-30T16:08:20;95294.66;;;4.27;83.63
40946;BME280;55635;50.264;11.918;2023-01-30T16:11:02;95287.34;;;4.13;83.54
40946;BME280;55635;50.264;11.918;2023-01-30T16:13:43;95314.56;;;4.37;83.16
40946;BME280;55635;50.264;11.918;2023-01-30T16:16:24;95318.31;;;4.35;83.29
40946;BME280;55635;50.264;11.918;2023-01-30T16:19:05;95335.91;;;4.17;83.90
40946;BME280;55635;50.264;11.918;2023-01-30T16:21:48;95344.91;;;4.14;83.77
40946;BME280;55635;50.264;11.918;2023-01-30T16:24:35;95349.44;;;4.30;84.18
40946;BME280;55635;50.264;11.918;2023-01-30T16:27:38;95359.91;;;4.22;84.48
40946;BME280;55635;50.264;11.918;2023-01-30T16:30:27;95350.59;;;4.27;84.30
40946;BME280;55635;50.264;11.918;2023-01-30T16:33:08;95357.16;;;4.06;85.04
40946;BME280;55635;50.264;11.918;2023-01-30T16:35:51;95353.69;;;4.05;85.28
40946;BME280;55635;50.264;11.918;2023-01-30T16:38:38;95358.59;;;4.26;84.73
40946;BME280;55635;50.264;11.918;2023-01-30T16:44:22;95380.50;;;4.17;84.35
40946;BME280;55635;50.264;11.918;2023-01-30T16:47:06;95385.00;;;4.24;85.01
40946;BME280;55635;50.264;11.918;2023-01-30T16:49:54;95397.22;;;4.33;84.63
40946;BME280;55635;50.264;11.918;2023-01-30T16:52:43;95396.69;;;4.30;84.91
40946;BME280;55635;50.264;11.918;2023-01-30T16:55:25;95401.44;;;4.09;85.30